sensor_id;sensor_type;location;lat;lon;timestamp;P1;durP1;ratioP1;P2;durP2;ratioP2
22417;SDS011;11376;50.932;4.442;2023-04-03T00:00:08;17.50;;;9.13;;
22417;SDS011;11376;50.932;4.442;2023-04-03T00:02:35;19.70;;;8.80;;
22417;SDS011;11376;50.932;4.442;2023-04-03T00:05:00;22.33;;;9.57;;
22417;SDS011;11376;50.932;4.442;2023-04-03T00:07:26;20.67;;;9.33;;
22417;SDS011;11376;50.932;4.442;2023-04-03T00:09:52;15.67;;;8.70;;
22417;SDS011;11376;50.932;4.442;2023-04-03T00:12:17;17.00;;;8.70;;
22417;SDS011;11376;50.932;4.442;2023-04-03T00:14:43;17.17;;;9.33;;
22417;SDS011;11376;50.932;4.442;2023-04-03T00:17:09;17.30;;;9.00;;
22417;SDS011;11376;50.932;4.442;2023-04-03T00:19:34;17.57;;;8.70;;
22417;SDS011;11376;50.932;4.442;2023-04-03T00:22:00;19.70;;;8.80;;
22417;SDS011;11376;50.932;4.442;2023-04-03T00:24:26;14.87;;;8.43;;
22417;SDS011;11376;50.932;4.442;2023-04-03T00:26:52;19.30;;;8.87;;
22417;SDS011;11376;50.932;4.442;2023-04-03T00:29:17;18.57;;;9.10;;
22417;SDS011;11376;50.932;4.442;2023-04-03T00:31:43;16.40;;;8.33;;
22417;SDS011;11376;50.932;4.442;2023-04-03T00:34:09;18.20;;;8.70;;
22417;SDS011;11376;50.932;4.442;2023-04-03T00:36:35;15.13;;;8.93;;
22417;SDS011;11376;50.932;4.442;2023-04-03T00:39:00;18.73;;;8.57;;
22417;SDS011;11376;50.932;4.442;2023-04-03T00:41:26;15.03;;;8.40;;
22417;SDS011;11376;50.932;4.442;2023-04-03T00:43:51;18.63;;;8.83;;
22417;SDS011;11376;50.932;4.442;2023-04-03T00:46:17;15.67;;;7.83;;
22417;SDS011;11376;50.932;4.442;2023-04-03T00:48:44;16.83;;;8.50;;
22417;SDS011;11376;50.932;4.442;2023-04-03T00:51:15;14.30;;;7.47;;
22417;SDS011;11376;50.932;4.442;2023-04-03T00:53:55;14.67;;;7.90;;
22417;SDS011;11376;50.932;4.442;2023-04-03T00:56:25;15.73;;;7.30;;
22417;SDS011;11376;50.932;4.442;2023-04-03T00:59:00;16.07;;;7.83;;
22417;SDS011;11376;50.932;4.442;2023-04-03T01:01:27;13.23;;;7.67;;
22417;SDS011;11376;50.932;4.442;2023-04-03T01:03:54;15.77;;;8.47;;
22417;SDS011;11376;50.932;4.442;2023-04-03T01:06:21;18.07;;;7.13;;
22417;SDS011;11376;50.932;4.442;2023-04-03T01:08:51;15.80;;;7.83;;
22417;SDS011;11376;50.932;4.442;2023-04-03T01:11:18;17.83;;;8.00;;
22417;SDS011;11376;50.932;4.442;2023-04-03T01:13:45;15.77;;;7.90;;
22417;SDS011;11376;50.932;4.442;2023-04-03T01:16:11;18.37;;;8.00;;
22417;SDS011;11376;50.932;4.442;2023-04-03T01:18:38;16.77;;;8.23;;
22417;SDS011;11376;50.932;4.442;2023-04-03T01:26:33;15.30;;;7.33;;
22417;SDS011;11376;50.932;4.442;2023-04-03T01:28:59;17.03;;;7.00;;
22417;SDS011;11376;50.932;4.442;2023-04-03T01:31:31;15.17;;;7.20;;
22417;SDS011;11376;50.932;4.442;2023-04-03T01:34:14;15.20;;;7.37;;
22417;SDS011;11376;50.932;4.442;2023-04-03T01:36:39;14.07;;;7.03;;
22417;SDS011;11376;50.932;4.442;2023-04-03T01:39:06;15.83;;;7.53;;
22417;SDS011;11376;50.932;4.442;2023-04-03T01:41:31;15.47;;;6.63;;
22417;SDS011;11376;50.932;4.442;2023-04-03T01:43:57;14.40;;;6.90;;
22417;SDS011;11376;50.932;4.442;2023-04-03T01:46:23;13.03;;;6.30;;
22417;SDS011;11376;50.932;4.442;2023-04-03T01:48:51;14.23;;;6.77;;
22417;SDS011;11376;50.932;4.442;2023-04-03T01:51:17;13.07;;;6.50;;
22417;SDS011;11376;50.932;4.442;2023-04-03T01:53:43;15.67;;;6.57;;
22417;SDS011;11376;50.932;4.442;2023-04-03T01:56:08;10.83;;;6.13;;
22417;SDS011;11376;50.932;4.442;2023-04-03T01:58:34;15.70;;;6.50;;
22417;SDS011;11376;50.932;4.442;2023-04-03T02:01:00;14.23;;;6.50;;
22417;SDS011;11376;50.932;4.442;2023-04-03T02:03:26;13.37;;;6.53;;
22417;SDS011;11376;50.932;4.442;2023-04-03T02:05:52;14.40;;;6.60;;
22417;SDS011;11376;50.932;4.442;2023-04-03T02:08:17;12.67;;;6.63;;
22417;SDS011;11376;50.932;4.442;2023-04-03T02:10:44;15.47;;;7.33;;
22417;SDS011;11376;50.932;4.442;2023-04-03T02:13:11;14.07;;;6.27;;
22417;SDS011;11376;50.932;4.442;2023-04-03T02:15:38;15.40;;;6.53;;
22417;SDS011;11376;50.932;4.442;2023-04-03T02:18:04;14.83;;;7.03;;
22417;SDS011;11376;50.932;4.442;2023-04-03T02:20:30;16.63;;;6.60;;
22417;SDS011;11376;50.932;4.442;2023-04-03T02:22:56;14.87;;;6.30;;
22417;SDS011;11376;50.932;4.442;2023-04-03T02:25:22;13.23;;;6.83;;
22417;SDS011;11376;50.932;4.442;2023-04-03T02:27:47;12.50;;;6.93;;
22417;SDS011;11376;50.932;4.442;2023-04-03T02:30:13;13.77;;;6.87;;
22417;SDS011;11376;50.932;4.442;2023-04-03T02:32:40;15.23;;;7.10;;
22417;SDS011;11376;50.932;4.442;2023-04-03T02:35:06;11.10;;;6.30;;
22417;SDS011;11376;50.932;4.442;2023-04-03T02:37:32;14.23;;;6.30;;
22417;SDS011;11376;50.932;4.442;2023-04-03T02:39:58;13.27;;;6.07;;
22417;SDS011;11376;50.932;4.442;2023-04-03T02:42:24;13.73;;;6.60;;
22417;SDS011;11376;50.932;4.442;2023-04-03T02:44:49;13.13;;;6.30;;
22417;SDS011;11376;50.932;4.442;2023-04-03T02:47:15;12.33;;;6.00;;
22417;SDS011;11376;50.932;4.442;2023-04-03T02:49:41;10.33;;;6.10;;
22417;SDS011;11376;50.932;4.442;2023-04-03T02:52:09;14.53;;;6.57;;
22417;SDS011;11376;50.932;4.442;2023-04-03T02:54:35;14.17;;;6.13;;
22417;SDS011;11376;50.932;4.442;2023-04-03T02:57:01;11.40;;;6.27;;
22417;SDS011;11376;50.932;4.442;2023-04-03T02:59:26;13.27;;;5.80;;
22417;SDS011;11376;50.932;4.442;2023-04-03T03:01:52;12.33;;;7.03;;
22417;SDS011;11376;50.932;4.442;2023-04-03T03:04:18;12.03;;;6.23;;
22417;SDS011;11376;50.932;4.442;2023-04-03T03:06:44;14.27;;;7.43;;
22417;SDS011;11376;50.932;4.442;2023-04-03T03:09:09;12.40;;;7.77;;
22417;SDS011;11376;50.932;4.442;2023-04-03T03:11:35;12.60;;;6.90;;
22417;SDS011;11376;50.932;4.442;2023-04-03T03:14:01;14.57;;;7.23;;
22417;SDS011;11376;50.932;4.442;2023-04-03T03:16:26;15.40;;;6.57;;
22417;SDS011;11376;50.932;4.442;2023-04-03T03:18:52;15.43;;;6.83;;
22417;SDS011;11376;50.932;4.442;2023-04-03T03:21:18;15.30;;;6.83;;
22417;SDS011;11376;50.932;4.442;2023-04-03T03:23:43;12.33;;;7.07;;
22417;SDS011;11376;50.932;4.442;2023-04-03T03:26:09;15.60;;;7.63;;
22417;SDS011;11376;50.932;4.442;2023-04-03T03:28:36;13.73;;;6.90;;
22417;SDS011;11376;50.932;4.442;2023-04-03T03:31:03;13.20;;;6.93;;
22417;SDS011;11376;50.932;4.442;2023-04-03T03:33:29;14.27;;;7.67;;
22417;SDS011;11376;50.932;4.442;2023-04-03T03:35:55;15.43;;;7.83;;
22417;SDS011;11376;50.932;4.442;2023-04-03T03:38:21;16.73;;;7.63;;
22417;SDS011;11376;50.932;4.442;2023-04-03T03:40:48;14.77;;;7.20;;
22417;SDS011;11376;50.932;4.442;2023-04-03T03:43:14;13.73;;;7.50;;
22417;SDS011;11376;50.932;4.442;2023-04-03T03:45:40;15.13;;;7.20;;
22417;SDS011;11376;50.932;4.442;2023-04-03T03:48:05;13.93;;;7.20;;
22417;SDS011;11376;50.932;4.442;2023-04-03T03:50:31;13.40;;;6.93;;
22417;SDS011;11376;50.932;4.442;2023-04-03T03:52:57;14.87;;;7.10;;
22417;SDS011;11376;50.932;4.442;2023-04-03T03:55:23;13.27;;;6.97;;
22417;SDS011;11376;50.932;4.442;2023-04-03T03:57:48;20.17;;;7.83;;
22417;SDS011;11376;50.932;4.442;2023-04-03T04:00:14;17.90;;;7.53;;
22417;SDS011;11376;50.932;4.442;2023-04-03T04:02:40;12.50;;;7.23;;
22417;SDS011;11376;50.932;4.442;2023-04-03T04:05:06;15.47;;;7.70;;
22417;SDS011;11376;50.932;4.442;2023-04-03T04:07:32;14.53;;;7.03;;
22417;SDS011;11376;50.932;4.442;2023-04-03T04:09:57;16.43;;;6.90;;
22417;SDS011;11376;50.932;4.442;2023-04-03T04:12:23;16.27;;;7.97;;
22417;SDS011;11376;50.932;4.442;2023-04-03T04:14:48;14.93;;;7.10;;
22417;SDS011;11376;50.932;4.442;2023-04-03T04:17:14;14.73;;;7.57;;
22417;SDS011;11376;50.932;4.442;2023-04-03T04:19:40;15.07;;;7.40;;
22417;SDS011;11376;50.932;4.442;2023-04-03T04:22:05;19.27;;;7.60;;
22417;SDS011;11376;50.932;4.442;2023-04-03T04:24:31;17.87;;;7.87;;
22417;SDS011;11376;50.932;4.442;2023-04-03T04:26:57;15.87;;;8.33;;
22417;SDS011;11376;50.932;4.442;2023-04-03T04:29:23;19.37;;;8.53;;
22417;SDS011;11376;50.932;4.442;2023-04-03T04:31:49;19.67;;;8.03;;
22417;SDS011;11376;50.932;4.442;2023-04-03T04:34:14;17.27;;;8.60;;
22417;SDS011;11376;50.932;4.442;2023-04-03T04:36:40;16.73;;;9.03;;
22417;SDS011;11376;50.932;4.442;2023-04-03T04:39:06;20.93;;;9.93;;
22417;SDS011;11376;50.932;4.442;2023-04-03T04:41:31;20.43;;;11.27;;
22417;SDS011;11376;50.932;4.442;2023-04-03T04:43:57;21.57;;;10.43;;
22417;SDS011;11376;50.932;4.442;2023-04-03T04:46:23;22.67;;;11.67;;
22417;SDS011;11376;50.932;4.442;2023-04-03T04:48:49;21.17;;;10.80;;
22417;SDS011;11376;50.932;4.442;2023-04-03T04:51:15;21.80;;;11.27;;
22417;SDS011;11376;50.932;4.442;2023-04-03T04:53:41;24.83;;;11.30;;
22417;SDS011;11376;50.932;4.442;2023-04-03T04:56:07;21.13;;;11.37;;
22417;SDS011;11376;50.932;4.442;2023-04-03T04:58:33;27.03;;;12.40;;
22417;SDS011;11376;50.932;4.442;2023-04-03T05:01:01;22.17;;;11.57;;
22417;SDS011;11376;50.932;4.442;2023-04-03T05:03:31;21.73;;;10.93;;
22417;SDS011;11376;50.932;4.442;2023-04-03T05:05:57;23.83;;;11.20;;
22417;SDS011;11376;50.932;4.442;2023-04-03T05:08:23;20.77;;;10.77;;
22417;SDS011;11376;50.932;4.442;2023-04-03T05:10:49;19.27;;;10.53;;
22417;SDS011;11376;50.932;4.442;2023-04-03T05:13:15;21.73;;;10.30;;
22417;SDS011;11376;50.932;4.442;2023-04-03T05:15:42;18.90;;;10.37;;
22417;SDS011;11376;50.932;4.442;2023-04-03T05:18:07;21.43;;;10.67;;
22417;SDS011;11376;50.932;4.442;2023-04-03T05:20:33;19.80;;;9.97;;
22417;SDS011;11376;50.932;4.442;2023-04-03T05:22:59;20.77;;;10.27;;
22417;SDS011;11376;50.932;4.442;2023-04-03T05:25:25;21.87;;;10.50;;
22417;SDS011;11376;50.932;4.442;2023-04-03T05:27:51;23.43;;;10.43;;
22417;SDS011;11376;50.932;4.442;2023-04-03T05:30:17;19.57;;;10.53;;
22417;SDS011;11376;50.932;4.442;2023-04-03T05:32:43;24.30;;;10.23;;
22417;SDS011;11376;50.932;4.442;2023-04-03T05:35:09;22.40;;;10.10;;
22417;SDS011;11376;50.932;4.442;2023-04-03T05:37:35;22.10;;;10.40;;
22417;SDS011;11376;50.932;4.442;2023-04-03T05:40:00;19.53;;;10.87;;
22417;SDS011;11376;50.932;4.442;2023-04-03T05:42:28;21.87;;;10.10;;
22417;SDS011;11376;50.932;4.442;2023-04-03T05:44:53;26.50;;;11.47;;
22417;SDS011;11376;50.932;4.442;2023-04-03T05:47:19;23.73;;;11.37;;
22417;SDS011;11376;50.932;4.442;2023-04-03T05:49:45;25.43;;;11.77;;
22417;SDS011;11376;50.932;4.442;2023-04-03T05:52:17;20.27;;;11.23;;
22417;SDS011;11376;50.932;4.442;2023-04-03T05:54:47;20.67;;;11.63;;
22417;SDS011;11376;50.932;4.442;2023-04-03T05:57:14;23.93;;;11.57;;
22417;SDS011;11376;50.932;4.442;2023-04-03T05:59:41;26.87;;;11.60;;
22417;SDS011;11376;50.932;4.442;2023-04-03T06:02:12;28.73;;;14.03;;
22417;SDS011;11376;50.932;4.442;2023-04-03T06:04:39;30.83;;;14.47;;
22417;SDS011;11376;50.932;4.442;2023-04-03T06:07:05;34.73;;;15.43;;
22417;SDS011;11376;50.932;4.442;2023-04-03T06:09:32;28.30;;;14.00;;
22417;SDS011;11376;50.932;4.442;2023-04-03T06:11:58;27.83;;;15.97;;
22417;SDS011;11376;50.932;4.442;2023-04-03T06:14:24;36.03;;;16.77;;
22417;SDS011;11376;50.932;4.442;2023-04-03T06:16:50;30.43;;;15.13;;
22417;SDS011;11376;50.932;4.442;2023-04-03T06:19:17;30.50;;;15.97;;
22417;SDS011;11376;50.932;4.442;2023-04-03T06:21:43;28.83;;;14.83;;
22417;SDS011;11376;50.932;4.442;2023-04-03T06:24:09;28.93;;;14.93;;
22417;SDS011;11376;50.932;4.442;2023-04-03T06:26:37;31.80;;;14.37;;
22417;SDS011;11376;50.932;4.442;2023-04-03T06:29:03;28.47;;;14.63;;
22417;SDS011;11376;50.932;4.442;2023-04-03T06:31:28;27.13;;;14.40;;
22417;SDS011;11376;50.932;4.442;2023-04-03T06:33:54;32.37;;;14.43;;
22417;SDS011;11376;50.932;4.442;2023-04-03T06:36:21;27.77;;;14.70;;
22417;SDS011;11376;50.932;4.442;2023-04-03T06:38:47;26.50;;;14.57;;
22417;SDS011;11376;50.932;4.442;2023-04-03T06:41:13;29.37;;;14.33;;
22417;SDS011;11376;50.932;4.442;2023-04-03T06:43:39;26.60;;;13.93;;
22417;SDS011;11376;50.932;4.442;2023-04-03T06:46:05;27.83;;;14.00;;
22417;SDS011;11376;50.932;4.442;2023-04-03T06:48:31;20.93;;;13.37;;
22417;SDS011;11376;50.932;4.442;2023-04-03T06:50:57;26.53;;;12.50;;
22417;SDS011;11376;50.932;4.442;2023-04-03T06:53:22;24.67;;;12.33;;
22417;SDS011;11376;50.932;4.442;2023-04-03T06:55:48;20.77;;;11.00;;
22417;SDS011;11376;50.932;4.442;2023-04-03T06:58:14;20.73;;;11.60;;
22417;SDS011;11376;50.932;4.442;2023-04-03T07:00:42;22.17;;;11.87;;
22417;SDS011;11376;50.932;4.442;2023-04-03T07:03:07;18.27;;;10.83;;
22417;SDS011;11376;50.932;4.442;2023-04-03T07:05:33;23.40;;;10.40;;
22417;SDS011;11376;50.932;4.442;2023-04-03T07:07:59;17.37;;;10.43;;
22417;SDS011;11376;50.932;4.442;2023-04-03T07:10:24;16.60;;;10.40;;
22417;SDS011;11376;50.932;4.442;2023-04-03T07:12:50;17.17;;;9.17;;
22417;SDS011;11376;50.932;4.442;2023-04-03T07:15:16;13.70;;;8.80;;
22417;SDS011;11376;50.932;4.442;2023-04-03T07:17:42;15.63;;;8.87;;
22417;SDS011;11376;50.932;4.442;2023-04-03T07:20:07;13.67;;;8.03;;
22417;SDS011;11376;50.932;4.442;2023-04-03T07:22:34;13.10;;;7.63;;
22417;SDS011;11376;50.932;4.442;2023-04-03T07:24:59;14.97;;;7.50;;
22417;SDS011;11376;50.932;4.442;2023-04-03T07:27:25;12.20;;;7.00;;
22417;SDS011;11376;50.932;4.442;2023-04-03T07:29:51;15.10;;;6.90;;
22417;SDS011;11376;50.932;4.442;2023-04-03T07:32:17;11.63;;;6.23;;
22417;SDS011;11376;50.932;4.442;2023-04-03T07:34:43;12.20;;;6.07;;
22417;SDS011;11376;50.932;4.442;2023-04-03T07:37:09;11.20;;;6.00;;
22417;SDS011;11376;50.932;4.442;2023-04-03T07:39:35;12.43;;;5.63;;
22417;SDS011;11376;50.932;4.442;2023-04-03T07:42:01;10.20;;;5.70;;
22417;SDS011;11376;50.932;4.442;2023-04-03T07:44:26;12.73;;;5.87;;
22417;SDS011;11376;50.932;4.442;2023-04-03T07:46:52;10.60;;;5.60;;
22417;SDS011;11376;50.932;4.442;2023-04-03T07:49:18;10.93;;;4.93;;
22417;SDS011;11376;50.932;4.442;2023-04-03T07:51:44;9.43;;;5.17;;
22417;SDS011;11376;50.932;4.442;2023-04-03T07:54:10;10.37;;;5.37;;
22417;SDS011;11376;50.932;4.442;2023-04-03T07:56:36;11.90;;;4.93;;
22417;SDS011;11376;50.932;4.442;2023-04-03T07:59:01;11.13;;;4.93;;
22417;SDS011;11376;50.932;4.442;2023-04-03T08:01:27;9.17;;;4.23;;
22417;SDS011;11376;50.932;4.442;2023-04-03T08:03:53;9.30;;;4.07;;
22417;SDS011;11376;50.932;4.442;2023-04-03T08:06:18;8.73;;;4.30;;
22417;SDS011;11376;50.932;4.442;2023-04-03T08:08:44;8.13;;;4.10;;
22417;SDS011;11376;50.932;4.442;2023-04-03T08:11:10;8.87;;;4.13;;
22417;SDS011;11376;50.932;4.442;2023-04-03T08:13:36;7.70;;;4.00;;
22417;SDS011;11376;50.932;4.442;2023-04-03T08:16:10;8.90;;;4.70;;
22417;SDS011;11376;50.932;4.442;2023-04-03T08:18:42;7.77;;;3.93;;
22417;SDS011;11376;50.932;4.442;2023-04-03T08:21:08;9.30;;;3.93;;
22417;SDS011;11376;50.932;4.442;2023-04-03T08:23:35;9.17;;;4.10;;
22417;SDS011;11376;50.932;4.442;2023-04-03T08:26:09;7.80;;;3.37;;
22417;SDS011;11376;50.932;4.442;2023-04-03T08:28:36;6.90;;;3.53;;
22417;SDS011;11376;50.932;4.442;2023-04-03T08:31:03;9.57;;;3.57;;
22417;SDS011;11376;50.932;4.442;2023-04-03T08:33:33;7.57;;;3.37;;
22417;SDS011;11376;50.932;4.442;2023-04-03T08:36:01;7.17;;;2.90;;
22417;SDS011;11376;50.932;4.442;2023-04-03T08:38:34;7.13;;;3.30;;
22417;SDS011;11376;50.932;4.442;2023-04-03T08:41:14;6.83;;;3.00;;
22417;SDS011;11376;50.932;4.442;2023-04-03T08:49:42;8.20;;;2.70;;
22417;SDS011;11376;50.932;4.442;2023-04-03T08:52:12;6.77;;;2.50;;
22417;SDS011;11376;50.932;4.442;2023-04-03T08:57:17;7.67;;;2.40;;
22417;SDS011;11376;50.932;4.442;2023-04-03T08:59:50;5.80;;;2.40;;
22417;SDS011;11376;50.932;4.442;2023-04-03T09:02:29;5.90;;;2.47;;
22417;SDS011;11376;50.932;4.442;2023-04-03T09:05:19;5.47;;;2.47;;
22417;SDS011;11376;50.932;4.442;2023-04-03T09:07:57;7.60;;;2.40;;
22417;SDS011;11376;50.932;4.442;2023-04-03T09:10:33;5.97;;;2.33;;
22417;SDS011;11376;50.932;4.442;2023-04-03T09:13:08;5.40;;;1.80;;
22417;SDS011;11376;50.932;4.442;2023-04-03T09:15:51;6.87;;;2.20;;
22417;SDS011;11376;50.932;4.442;2023-04-03T09:23:43;6.27;;;2.07;;
22417;SDS011;11376;50.932;4.442;2023-04-03T09:26:14;6.50;;;1.80;;
22417;SDS011;11376;50.932;4.442;2023-04-03T09:28:46;6.20;;;1.60;;
22417;SDS011;11376;50.932;4.442;2023-04-03T09:31:15;4.83;;;1.70;;
22417;SDS011;11376;50.932;4.442;2023-04-03T09:33:55;5.80;;;1.47;;
22417;SDS011;11376;50.932;4.442;2023-04-03T09:36:38;8.97;;;1.60;;
22417;SDS011;11376;50.932;4.442;2023-04-03T09:44:36;7.57;;;1.83;;
22417;SDS011;11376;50.932;4.442;2023-04-03T09:49:44;6.57;;;1.50;;
22417;SDS011;11376;50.932;4.442;2023-04-03T09:52:20;5.97;;;1.60;;
22417;SDS011;11376;50.932;4.442;2023-04-03T09:54:49;5.33;;;1.47;;
22417;SDS011;11376;50.932;4.442;2023-04-03T09:57:15;6.23;;;1.73;;
22417;SDS011;11376;50.932;4.442;2023-04-03T09:59:44;5.00;;;1.47;;
22417;SDS011;11376;50.932;4.442;2023-04-03T10:02:30;4.80;;;1.60;;
22417;SDS011;11376;50.932;4.442;2023-04-03T10:05:03;9.30;;;1.50;;
22417;SDS011;11376;50.932;4.442;2023-04-03T10:07:49;4.00;;;1.23;;
22417;SDS011;11376;50.932;4.442;2023-04-03T10:12:47;5.00;;;1.30;;
22417;SDS011;11376;50.932;4.442;2023-04-03T10:15:14;4.97;;;1.20;;
22417;SDS011;11376;50.932;4.442;2023-04-03T10:17:51;5.43;;;1.40;;
22417;SDS011;11376;50.932;4.442;2023-04-03T10:23:14;4.50;;;1.30;;
22417;SDS011;11376;50.932;4.442;2023-04-03T10:26:30;4.73;;;1.63;;
22417;SDS011;11376;50.932;4.442;2023-04-03T10:31:54;4.07;;;1.30;;
22417;SDS011;11376;50.932;4.442;2023-04-03T10:34:41;5.20;;;1.10;;
22417;SDS011;11376;50.932;4.442;2023-04-03T10:40:01;6.32;;;1.50;;
22417;SDS011;11376;50.932;4.442;2023-04-03T10:43:01;4.88;;;1.38;;
22417;SDS011;11376;50.932;4.442;2023-04-03T10:48:43;3.72;;;1.48;;
22417;SDS011;11376;50.932;4.442;2023-04-03T10:51:39;4.00;;;1.55;;
22417;SDS011;11376;50.932;4.442;2023-04-03T10:57:12;4.53;;;1.30;;
22417;SDS011;11376;50.932;4.442;2023-04-03T10:59:43;4.28;;;1.45;;
22417;SDS011;11376;50.932;4.442;2023-04-03T11:02:45;4.15;;;1.40;;
22417;SDS011;11376;50.932;4.442;2023-04-03T11:05:34;5.28;;;1.55;;
22417;SDS011;11376;50.932;4.442;2023-04-03T11:10:42;6.03;;;1.45;;
22417;SDS011;11376;50.932;4.442;2023-04-03T11:13:13;4.95;;;1.20;;
22417;SDS011;11376;50.932;4.442;2023-04-03T11:15:44;6.20;;;1.48;;
22417;SDS011;11376;50.932;4.442;2023-04-03T11:18:19;3.80;;;1.15;;
22417;SDS011;11376;50.932;4.442;2023-04-03T11:21:15;5.63;;;1.40;;
22417;SDS011;11376;50.932;4.442;2023-04-03T11:23:47;4.47;;;1.25;;
22417;SDS011;11376;50.932;4.442;2023-04-03T11:26:18;4.00;;;1.40;;
22417;SDS011;11376;50.932;4.442;2023-04-03T11:28:46;6.55;;;1.23;;
22417;SDS011;11376;50.932;4.442;2023-04-03T11:37:04;5.30;;;1.35;;
22417;SDS011;11376;50.932;4.442;2023-04-03T11:39:53;3.13;;;1.00;;
22417;SDS011;11376;50.932;4.442;2023-04-03T11:47:46;4.82;;;1.23;;
22417;SDS011;11376;50.932;4.442;2023-04-03T11:50:59;3.55;;;1.38;;
22417;SDS011;11376;50.932;4.442;2023-04-03T12:01:01;4.40;;;1.35;;
22417;SDS011;11376;50.932;4.442;2023-04-03T12:13:41;3.50;;;0.98;;
22417;SDS011;11376;50.932;4.442;2023-04-03T12:16:19;3.40;;;1.23;;
22417;SDS011;11376;50.932;4.442;2023-04-03T12:21:14;4.13;;;1.27;;
22417;SDS011;11376;50.932;4.442;2023-04-03T12:24:03;3.22;;;1.25;;
22417;SDS011;11376;50.932;4.442;2023-04-03T12:39:51;3.03;;;1.05;;
22417;SDS011;11376;50.932;4.442;2023-04-03T12:45:23;2.63;;;1.30;;
22417;SDS011;11376;50.932;4.442;2023-04-03T12:47:51;3.53;;;1.38;;
22417;SDS011;11376;50.932;4.442;2023-04-03T12:58:53;3.42;;;1.08;;
22417;SDS011;11376;50.932;4.442;2023-04-03T13:01:26;3.67;;;0.95;;
22417;SDS011;11376;50.932;4.442;2023-04-03T13:03:53;3.10;;;1.15;;
22417;SDS011;11376;50.932;4.442;2023-04-03T13:06:22;3.20;;;1.23;;
22417;SDS011;11376;50.932;4.442;2023-04-03T13:08:55;4.28;;;1.20;;
22417;SDS011;11376;50.932;4.442;2023-04-03T13:11:27;4.63;;;1.30;;
22417;SDS011;11376;50.932;4.442;2023-04-03T13:13:59;3.72;;;1.10;;
22417;SDS011;11376;50.932;4.442;2023-04-03T13:16:28;5.45;;;1.17;;
22417;SDS011;11376;50.932;4.442;2023-04-03T13:18:54;2.50;;;1.10;;
22417;SDS011;11376;50.932;4.442;2023-04-03T13:21:25;2.50;;;0.98;;
22417;SDS011;11376;50.932;4.442;2023-04-03T13:23:57;3.03;;;1.15;;
22417;SDS011;11376;50.932;4.442;2023-04-03T13:26:27;4.50;;;1.45;;
22417;SDS011;11376;50.932;4.442;2023-04-03T13:28:56;3.17;;;1.40;;
22417;SDS011;11376;50.932;4.442;2023-04-03T13:31:39;3.65;;;1.10;;
22417;SDS011;11376;50.932;4.442;2023-04-03T13:34:06;4.38;;;1.90;;
22417;SDS011;11376;50.932;4.442;2023-04-03T13:36:40;5.07;;;1.30;;
22417;SDS011;11376;50.932;4.442;2023-04-03T13:41:36;4.13;;;1.30;;
22417;SDS011;11376;50.932;4.442;2023-04-03T13:46:48;3.88;;;1.15;;
22417;SDS011;11376;50.932;4.442;2023-04-03T13:49:19;3.38;;;1.73;;
22417;SDS011;11376;50.932;4.442;2023-04-03T13:51:51;5.03;;;2.13;;
22417;SDS011;11376;50.932;4.442;2023-04-03T13:54:18;3.72;;;1.20;;
22417;SDS011;11376;50.932;4.442;2023-04-03T13:56:45;3.38;;;1.02;;
22417;SDS011;11376;50.932;4.442;2023-04-03T14:01:44;3.60;;;1.17;;
22417;SDS011;11376;50.932;4.442;2023-04-03T14:04:26;4.30;;;1.30;;
22417;SDS011;11376;50.932;4.442;2023-04-03T14:06:54;3.33;;;1.20;;
22417;SDS011;11376;50.932;4.442;2023-04-03T14:09:20;5.43;;;1.60;;
22417;SDS011;11376;50.932;4.442;2023-04-03T14:11:47;5.53;;;1.30;;
22417;SDS011;11376;50.932;4.442;2023-04-03T14:14:18;3.22;;;1.10;;
22417;SDS011;11376;50.932;4.442;2023-04-03T14:16:48;4.25;;;1.00;;
22417;SDS011;11376;50.932;4.442;2023-04-03T14:19:22;4.30;;;1.00;;
22417;SDS011;11376;50.932;4.442;2023-04-03T14:21:50;5.22;;;1.23;;
22417;SDS011;11376;50.932;4.442;2023-04-03T14:24:17;4.47;;;1.33;;
22417;SDS011;11376;50.932;4.442;2023-04-03T14:26:44;5.03;;;1.20;;
22417;SDS011;11376;50.932;4.442;2023-04-03T14:29:11;3.63;;;1.27;;
22417;SDS011;11376;50.932;4.442;2023-04-03T14:31:38;4.15;;;1.30;;
22417;SDS011;11376;50.932;4.442;2023-04-03T14:34:04;3.17;;;1.20;;
22417;SDS011;11376;50.932;4.442;2023-04-03T14:36:31;2.95;;;1.10;;
22417;SDS011;11376;50.932;4.442;2023-04-03T14:38:58;2.28;;;1.10;;
22417;SDS011;11376;50.932;4.442;2023-04-03T14:41:24;4.22;;;1.08;;
22417;SDS011;11376;50.932;4.442;2023-04-03T14:43:51;3.25;;;1.10;;
22417;SDS011;11376;50.932;4.442;2023-04-03T14:46:20;3.92;;;0.98;;
22417;SDS011;11376;50.932;4.442;2023-04-03T14:48:47;3.08;;;0.95;;
22417;SDS011;11376;50.932;4.442;2023-04-03T14:51:13;3.13;;;1.30;;
22417;SDS011;11376;50.932;4.442;2023-04-03T14:53:41;6.38;;;1.20;;
22417;SDS011;11376;50.932;4.442;2023-04-03T14:58:42;3.05;;;1.15;;
22417;SDS011;11376;50.932;4.442;2023-04-03T15:01:09;3.72;;;1.30;;
22417;SDS011;11376;50.932;4.442;2023-04-03T15:03:37;3.47;;;1.27;;
22417;SDS011;11376;50.932;4.442;2023-04-03T15:06:03;3.78;;;1.00;;
22417;SDS011;11376;50.932;4.442;2023-04-03T15:08:28;4.10;;;1.00;;
22417;SDS011;11376;50.932;4.442;2023-04-03T15:10:54;3.53;;;0.80;;
22417;SDS011;11376;50.932;4.442;2023-04-03T15:13:23;3.80;;;0.95;;
22417;SDS011;11376;50.932;4.442;2023-04-03T15:15:49;5.28;;;1.27;;
22417;SDS011;11376;50.932;4.442;2023-04-03T15:18:17;5.80;;;1.20;;
22417;SDS011;11376;50.932;4.442;2023-04-03T15:20:45;5.43;;;0.80;;
22417;SDS011;11376;50.932;4.442;2023-04-03T15:23:12;4.78;;;1.00;;
22417;SDS011;11376;50.932;4.442;2023-04-03T15:25:40;2.55;;;0.80;;
22417;SDS011;11376;50.932;4.442;2023-04-03T15:28:13;2.90;;;1.00;;
22417;SDS011;11376;50.932;4.442;2023-04-03T15:30:44;3.75;;;1.10;;
22417;SDS011;11376;50.932;4.442;2023-04-03T15:33:09;5.20;;;1.20;;
22417;SDS011;11376;50.932;4.442;2023-04-03T15:35:35;3.72;;;1.02;;
22417;SDS011;11376;50.932;4.442;2023-04-03T15:38:01;4.78;;;1.10;;
22417;SDS011;11376;50.932;4.442;2023-04-03T15:40:26;3.90;;;0.88;;
22417;SDS011;11376;50.932;4.442;2023-04-03T15:42:52;2.05;;;0.85;;
22417;SDS011;11376;50.932;4.442;2023-04-03T15:45:18;2.63;;;0.98;;
22417;SDS011;11376;50.932;4.442;2023-04-03T15:47:43;5.18;;;1.17;;
22417;SDS011;11376;50.932;4.442;2023-04-03T15:50:09;5.07;;;1.50;;
22417;SDS011;11376;50.932;4.442;2023-04-03T15:52:35;2.90;;;1.15;;
22417;SDS011;11376;50.932;4.442;2023-04-03T15:55:00;3.47;;;1.10;;
22417;SDS011;11376;50.932;4.442;2023-04-03T15:57:26;3.45;;;1.00;;
22417;SDS011;11376;50.932;4.442;2023-04-03T15:59:52;3.50;;;1.20;;
22417;SDS011;11376;50.932;4.442;2023-04-03T16:02:18;3.78;;;1.20;;
22417;SDS011;11376;50.932;4.442;2023-04-03T16:04:44;3.67;;;1.20;;
22417;SDS011;11376;50.932;4.442;2023-04-03T16:07:09;2.42;;;1.08;;
22417;SDS011;11376;50.932;4.442;2023-04-03T16:09:35;4.40;;;1.17;;
22417;SDS011;11376;50.932;4.442;2023-04-03T16:12:01;3.28;;;1.17;;
22417;SDS011;11376;50.932;4.442;2023-04-03T16:14:27;3.25;;;1.10;;
22417;SDS011;11376;50.932;4.442;2023-04-03T16:16:55;3.55;;;1.10;;
22417;SDS011;11376;50.932;4.442;2023-04-03T16:19:21;4.40;;;1.27;;
22417;SDS011;11376;50.932;4.442;2023-04-03T16:21:47;3.78;;;1.35;;
22417;SDS011;11376;50.932;4.442;2023-04-03T16:24:13;4.03;;;1.23;;
22417;SDS011;11376;50.932;4.442;2023-04-03T16:26:39;5.13;;;1.20;;
22417;SDS011;11376;50.932;4.442;2023-04-03T16:29:05;4.45;;;1.40;;
22417;SDS011;11376;50.932;4.442;2023-04-03T16:31:31;3.90;;;1.30;;
22417;SDS011;11376;50.932;4.442;2023-04-03T16:33:58;6.30;;;1.58;;
22417;SDS011;11376;50.932;4.442;2023-04-03T16:36:25;3.03;;;1.20;;
22417;SDS011;11376;50.932;4.442;2023-04-03T16:38:50;3.17;;;1.23;;